createdAt,value
2023-03-08T00:01:03.087Z,1.30
2023-03-08T00:05:07.949Z,1.30
2023-03-08T00:09:10.816Z,1.30
2023-03-08T00:13:14.723Z,1.30
2023-03-08T00:17:17.808Z,1.20
2023-03-08T00:21:22.004Z,1.20
2023-03-08T00:25:25.008Z,1.30
2023-03-08T00:29:27.819Z,1.30
2023-03-08T00:33:33.012Z,1.30
2023-03-08T00:37:37.267Z,1.30
2023-03-08T00:41:40.067Z,1.40
2023-03-08T00:45:42.855Z,1.40
2023-03-08T00:49:45.823Z,1.40
2023-03-08T00:53:50.089Z,1.40
2023-03-08T00:57:53.464Z,1.40
2023-03-08T01:01:56.373Z,1.50
2023-03-08T01:05:59.790Z,1.40
2023-03-08T01:10:05.448Z,1.40
2023-03-08T01:14:09.010Z,1.40
2023-03-08T01:18:12.108Z,1.40
2023-03-08T01:22:14.909Z,1.30
2023-03-08T01:26:20.861Z,1.30
2023-03-08T01:30:23.658Z,1.20
2023-03-08T01:34:26.475Z,1.20
2023-03-08T01:38:29.264Z,1.20
2023-03-08T01:42:33.715Z,1.10
2023-03-08T01:46:36.951Z,1.10
2023-03-08T01:50:40.577Z,1.10
2023-03-08T01:54:47.214Z,1.10
2023-03-08T01:58:51.799Z,1.00
2023-03-08T02:02:55.741Z,1.00
2023-03-08T02:06:58.533Z,1.00
2023-03-08T02:11:01.631Z,1.00
2023-03-08T02:15:06.942Z,0.90
2023-03-08T02:19:15.198Z,0.90
2023-03-08T02:23:20.882Z,0.90
2023-03-08T02:27:25.634Z,0.80
2023-03-08T02:31:28.486Z,0.80
2023-03-08T02:35:31.486Z,0.80
2023-03-08T02:39:38.405Z,0.70
2023-03-08T02:43:41.201Z,0.70
2023-03-08T02:47:44.017Z,0.70
2023-03-08T02:51:46.806Z,0.70
2023-03-08T02:55:50.914Z,0.70
2023-03-08T02:59:53.712Z,0.70
2023-03-08T03:04:26.560Z,0.60
2023-03-08T03:08:30.672Z,0.60
2023-03-08T03:12:34.942Z,0.60
2023-03-08T03:16:38.065Z,0.60
2023-03-08T03:20:40.877Z,0.60
2023-03-08T03:24:43.666Z,0.60
2023-03-08T03:28:47.810Z,0.60
2023-03-08T03:32:50.641Z,0.60
2023-03-08T03:36:53.407Z,0.60
2023-03-08T03:41:01.035Z,0.60
2023-03-08T03:45:05.565Z,0.60
2023-03-08T03:49:08.385Z,0.60
2023-03-08T03:53:11.202Z,0.60
2023-03-08T03:57:13.975Z,0.60
2023-03-08T04:01:18.930Z,0.50
2023-03-08T04:05:22.251Z,0.50
2023-03-08T04:09:25.055Z,0.50
2023-03-08T04:13:27.852Z,0.50
2023-03-08T04:17:32.107Z,0.50
2023-03-08T04:21:35.393Z,0.50
2023-03-08T04:25:38.208Z,0.50
2023-03-08T04:29:41.059Z,0.50
2023-03-08T04:33:45.542Z,0.50
2023-03-08T04:37:50.341Z,0.50
2023-03-08T04:41:53.136Z,0.50
2023-03-08T04:45:55.988Z,0.40
2023-03-08T04:50:00.283Z,0.40
2023-03-08T04:54:04.460Z,0.40
2023-03-08T04:58:07.275Z,0.40
2023-03-08T05:02:10.075Z,0.40
2023-03-08T05:06:15.127Z,0.40
2023-03-08T05:10:18.036Z,0.40
2023-03-08T05:14:21.795Z,0.40
2023-03-08T05:18:24.687Z,0.40
2023-03-08T05:22:29.904Z,0.40
2023-03-08T05:26:32.858Z,0.40
2023-03-08T05:30:35.723Z,0.40
2023-03-08T05:34:38.547Z,0.40
2023-03-08T05:38:42.738Z,0.40
2023-03-08T05:42:45.522Z,0.40
2023-03-08T05:46:50.706Z,0.40
2023-03-08T05:50:53.915Z,0.40
2023-03-08T05:55:08.702Z,0.40
2023-03-08T05:59:11.606Z,0.40
2023-03-08T06:03:14.498Z,0.50
2023-03-08T06:07:18.158Z,0.50
2023-03-08T06:11:22.415Z,0.50
2023-03-08T06:15:25.278Z,0.50
2023-03-08T06:19:28.104Z,0.50
2023-03-08T06:23:31.566Z,0.50
2023-03-08T06:27:36.733Z,0.50
2023-03-08T06:31:40.621Z,0.50
2023-03-08T06:35:43.548Z,0.60
2023-03-08T06:39:53.173Z,0.60
2023-03-08T06:43:57.970Z,0.60
2023-03-08T06:48:01.379Z,0.60
2023-03-08T06:52:05.442Z,0.60
2023-03-08T06:56:09.140Z,0.60
2023-03-08T07:00:14.341Z,0.70
2023-03-08T07:04:18.148Z,0.70
2023-03-08T07:08:28.066Z,0.70
2023-03-08T07:12:32.277Z,0.80
2023-03-08T07:16:36.445Z,0.80
2023-03-08T07:20:39.273Z,0.90
2023-03-08T07:24:43.946Z,0.90
2023-03-08T07:28:49.910Z,1.00
2023-03-08T07:32:55.092Z,1.10
2023-03-08T07:36:57.957Z,1.20
2023-03-08T07:41:00.826Z,1.20
2023-03-08T07:45:03.905Z,1.30
2023-03-08T07:49:10.601Z,1.40
2023-03-08T07:53:13.456Z,1.40
2023-03-08T07:57:16.545Z,1.40
2023-03-08T08:01:19.390Z,1.50
2023-03-08T08:05:23.666Z,1.50
2023-03-08T08:09:27.016Z,1.60
2023-03-08T08:13:30.842Z,1.70
2023-03-08T08:17:33.690Z,1.70
2023-03-08T08:21:37.830Z,1.70
2023-03-08T08:25:40.654Z,1.80
2023-03-08T08:29:46.141Z,1.80
2023-03-08T08:33:48.964Z,1.80
2023-03-08T08:37:53.187Z,1.90
2023-03-08T08:41:56.044Z,1.90
2023-03-08T08:45:59.561Z,2.00
2023-03-08T08:50:02.412Z,2.00
2023-03-08T08:54:06.667Z,2.10
2023-03-08T08:58:09.599Z,2.10
2023-03-08T09:02:12.939Z,2.20
2023-03-08T09:06:16.003Z,2.30
2023-03-08T09:10:20.359Z,2.30
2023-03-08T09:14:23.513Z,2.40
2023-03-08T09:18:26.342Z,2.40
2023-03-08T09:22:29.190Z,2.50
2023-03-08T09:26:34.735Z,2.50
2023-03-08T09:30:37.706Z,2.50
2023-03-08T09:34:40.524Z,2.60
2023-03-08T09:38:43.778Z,2.60
2023-03-08T09:42:48.120Z,2.60
2023-03-08T09:46:54.200Z,2.60
2023-03-08T09:50:59.481Z,2.70
2023-03-08T09:55:04.438Z,2.70
2023-03-08T09:59:12.504Z,2.80
2023-03-08T10:03:34.463Z,2.80
2023-03-08T10:07:44.152Z,2.90
2023-03-08T10:11:53.050Z,3.00
2023-03-08T10:15:59.381Z,3.00
2023-03-08T10:20:06.839Z,3.10
2023-03-08T10:24:15.082Z,3.10
2023-03-08T10:28:18.730Z,3.20
2023-03-08T10:32:23.366Z,3.30
2023-03-08T10:36:26.710Z,3.40
2023-03-08T10:40:29.613Z,3.50
2023-03-08T10:44:34.266Z,3.60
2023-03-08T10:48:38.530Z,3.70
2023-03-08T10:52:41.540Z,3.80
2023-03-08T10:56:46.283Z,3.90
2023-03-08T11:00:52.857Z,4.00
2023-03-08T11:05:04.876Z,4.00
2023-03-08T11:09:20.823Z,4.10
2023-03-08T11:13:25.904Z,4.20
2023-03-08T11:17:33.486Z,4.20
2023-03-08T11:21:43.698Z,4.30
2023-03-08T11:25:47.310Z,4.30
2023-03-08T11:29:57.954Z,4.40
2023-03-08T11:34:15.886Z,4.50
2023-03-08T11:38:22.880Z,4.50
2023-03-08T11:42:29.460Z,4.70
2023-03-08T11:46:44.446Z,4.80
2023-03-08T11:50:50.883Z,4.80
2023-03-08T11:55:01.287Z,4.90
2023-03-08T11:59:05.372Z,5.00
2023-03-08T12:03:13.178Z,5.00
2023-03-08T12:07:19.450Z,5.10
2023-03-08T12:11:25.857Z,5.10
2023-03-08T12:15:31.099Z,5.20
2023-03-08T12:19:36.826Z,5.20
2023-03-08T12:23:42.909Z,5.20
2023-03-08T12:27:48.940Z,5.30
2023-03-08T12:31:52.417Z,5.30
2023-03-08T12:36:22.378Z,5.30
2023-03-08T12:40:30.593Z,5.30
2023-03-08T12:44:34.804Z,5.30
2023-03-08T12:48:39.847Z,5.30
2023-03-08T12:52:43.715Z,5.30
2023-03-08T12:56:51.739Z,5.20
2023-03-08T13:01:00.810Z,5.20
2023-03-08T13:05:19.157Z,5.10
2023-03-08T13:09:23.764Z,5.00
2023-03-08T13:13:38.666Z,5.00
2023-03-08T13:17:49.214Z,4.90
2023-03-08T13:21:55.017Z,4.90
2023-03-08T13:26:17.472Z,4.80
2023-03-08T13:30:23.695Z,4.70
2023-03-08T13:34:29.810Z,4.70
2023-03-08T13:38:33.466Z,4.60
2023-03-08T13:42:36.282Z,4.50
2023-03-08T13:46:42.585Z,4.50
2023-03-08T13:50:47.939Z,4.40
2023-03-08T13:54:52.666Z,4.40
2023-03-08T13:58:57.563Z,4.30
2023-03-08T14:03:01.140Z,4.30
2023-03-08T14:07:06.548Z,4.20
2023-03-08T14:11:14.785Z,4.20
2023-03-08T14:15:18.776Z,4.20
2023-03-08T14:19:23.976Z,4.10
2023-03-08T14:23:29.488Z,4.10
2023-03-08T14:27:36.958Z,4.10
2023-03-08T14:31:40.258Z,4.00
2023-03-08T14:35:45.527Z,4.00
2023-03-08T14:39:50.672Z,4.00
2023-03-08T14:43:53.510Z,4.00
2023-03-08T14:47:58.805Z,4.00
2023-03-08T14:52:02.848Z,3.90
2023-03-08T14:56:08.937Z,4.00
2023-03-08T15:00:14.672Z,3.90
2023-03-08T15:04:18.573Z,3.90
2023-03-08T15:08:21.743Z,3.90
2023-03-08T15:12:25.920Z,3.90
2023-03-08T15:16:28.782Z,3.90
2023-03-08T15:20:32.075Z,3.90
2023-03-08T15:24:34.994Z,3.90
2023-03-08T15:28:41.221Z,3.80
2023-03-08T15:32:44.085Z,3.80
2023-03-08T15:36:47.214Z,3.80
2023-03-08T15:40:50.086Z,3.80
2023-03-08T15:44:54.225Z,3.70
2023-03-08T15:48:57.090Z,3.70
2023-03-08T15:53:00.643Z,3.70
2023-03-08T15:57:03.528Z,3.70
2023-03-08T16:01:07.936Z,3.60
2023-03-08T16:05:11.623Z,3.70
2023-03-08T16:09:14.450Z,3.60
2023-03-08T16:13:18.798Z,3.60
2023-03-08T16:17:25.833Z,3.60
2023-03-08T16:21:28.687Z,3.50
2023-03-08T16:25:31.537Z,3.50
2023-03-08T16:29:34.642Z,3.50
2023-03-08T16:33:39.736Z,3.40
2023-03-08T16:37:44.577Z,3.40
2023-03-08T16:41:47.397Z,3.40
2023-03-08T16:45:54.286Z,3.30
2023-03-08T16:49:58.582Z,3.30
2023-03-08T16:54:01.379Z,3.30
2023-03-08T16:58:04.228Z,3.20
2023-03-08T17:02:14.016Z,3.20
2023-03-08T17:06:19.555Z,3.10
2023-03-08T17:10:22.437Z,3.10
2023-03-08T17:14:25.248Z,3.10
2023-03-08T17:18:28.031Z,3.00
2023-03-08T17:22:33.708Z,3.00
2023-03-08T17:26:37.460Z,3.00
2023-03-08T17:30:41.344Z,2.90
2023-03-08T17:34:44.163Z,2.90
2023-03-08T17:38:48.349Z,2.90
2023-03-08T17:42:51.179Z,2.80
2023-03-08T17:46:54.229Z,2.80
2023-03-08T17:50:57.006Z,2.70
2023-03-08T17:55:01.384Z,2.70
2023-03-08T17:59:04.276Z,2.60
2023-03-08T18:03:07.402Z,2.60
2023-03-08T18:07:10.206Z,2.60
2023-03-08T18:11:14.454Z,2.50
2023-03-08T18:15:17.450Z,2.50
2023-03-08T18:19:20.295Z,2.50
2023-03-08T18:23:24.767Z,2.50
2023-03-08T18:27:28.984Z,2.40
2023-03-08T18:31:35.100Z,2.40
2023-03-08T18:35:38.041Z,2.40
2023-03-08T18:39:40.877Z,2.30
2023-03-08T18:43:47.034Z,2.30
2023-03-08T18:47:50.667Z,2.30
2023-03-08T18:51:53.724Z,2.30
2023-03-08T18:55:57.513Z,2.30
2023-03-08T19:00:01.684Z,2.30
2023-03-08T19:04:06.231Z,2.20
2023-03-08T19:08:09.101Z,2.20
2023-03-08T19:12:12.079Z,2.10
2023-03-08T19:16:19.295Z,2.10
2023-03-08T19:20:23.269Z,2.10
2023-03-08T19:24:35.132Z,2.10
2023-03-08T19:28:38.337Z,2.10
2023-03-08T19:32:42.851Z,2.10
2023-03-08T19:36:46.613Z,2.10
2023-03-08T19:40:50.525Z,2.10
2023-03-08T19:44:53.393Z,2.10
2023-03-08T19:48:57.540Z,2.10
2023-03-08T19:53:01.493Z,2.10
2023-03-08T19:57:04.642Z,2.00
2023-03-08T20:01:08.562Z,2.00
2023-03-08T20:05:12.914Z,2.00
2023-03-08T20:09:18.330Z,2.10
2023-03-08T20:13:21.206Z,2.00
2023-03-08T20:17:24.346Z,2.00
2023-03-08T20:21:30.917Z,2.10
2023-03-08T20:25:34.778Z,2.00
2023-03-08T20:29:37.672Z,2.10
2023-03-08T20:33:40.743Z,2.00
2023-03-08T20:37:45.233Z,2.00
2023-03-08T20:41:48.589Z,2.10
2023-03-08T20:45:51.561Z,2.00
2023-03-08T20:49:54.380Z,2.10
2023-03-08T20:53:59.675Z,2.10
2023-03-08T20:58:02.675Z,2.10
2023-03-08T21:02:18.839Z,2.10
2023-03-08T21:06:22.629Z,2.10
2023-03-08T21:10:27.204Z,2.10
2023-03-08T21:14:30.230Z,2.00
2023-03-08T21:18:33.355Z,2.00
2023-03-08T21:22:36.201Z,2.00
2023-03-08T21:26:40.617Z,2.10
2023-03-08T21:30:43.535Z,2.10
2023-03-08T21:34:48.377Z,2.00
2023-03-08T21:38:54.877Z,2.00
2023-03-08T21:42:59.890Z,2.00
2023-03-08T21:47:02.800Z,2.10
2023-03-08T21:51:08.692Z,2.10
2023-03-08T21:55:11.681Z,2.10
2023-03-08T21:59:16.748Z,2.00
2023-03-08T22:03:19.681Z,2.00
2023-03-08T22:07:22.501Z,2.10
2023-03-08T22:11:25.811Z,2.10
2023-03-08T22:15:31.026Z,2.10
2023-03-08T22:19:33.984Z,2.10
2023-03-08T22:23:36.834Z,2.10
2023-03-08T22:27:39.875Z,2.10
2023-03-08T22:31:44.167Z,2.10
2023-03-08T22:35:47.749Z,2.10
2023-03-08T22:39:51.341Z,2.10
2023-03-08T22:43:54.721Z,2.10
2023-03-08T22:48:00.653Z,2.10
2023-03-08T22:52:03.467Z,2.10
2023-03-08T22:56:06.717Z,2.10
2023-03-08T23:00:14.470Z,2.10
2023-03-08T23:04:18.734Z,2.10
2023-03-08T23:08:23.948Z,2.10
2023-03-08T23:12:27.093Z,2.10
2023-03-08T23:16:31.388Z,2.10
2023-03-08T23:20:36.688Z,2.10
2023-03-08T23:24:40.656Z,2.20
2023-03-08T23:28:43.479Z,2.20
2023-03-08T23:32:46.317Z,2.20
2023-03-08T23:36:50.729Z,2.20
2023-03-08T23:40:53.562Z,2.20
2023-03-08T23:44:56.377Z,2.20
2023-03-08T23:49:00.226Z,2.20
2023-03-08T23:53:04.368Z,2.10
2023-03-08T23:57:07.212Z,2.10
